createdAt,value
2023-03-06T00:03:35.672Z,65.41
2023-03-06T00:08:41.709Z,56.71
2023-03-06T00:13:44.689Z,51.62
2023-03-06T00:18:47.846Z,54.34
2023-03-06T00:23:52.045Z,65.13
2023-03-06T00:28:54.860Z,64.74
2023-03-06T00:33:57.559Z,51.87
2023-03-06T00:39:00.344Z,54.88
2023-03-06T00:44:03.080Z,61.35
2023-03-06T00:49:05.875Z,59.33
2023-03-06T00:54:08.560Z,55.56
2023-03-06T00:59:11.608Z,61.29
2023-03-06T01:04:14.788Z,60.87
2023-03-06T01:09:17.817Z,54.29
2023-03-06T01:14:21.184Z,60.82
2023-03-06T01:19:23.930Z,62.70
2023-03-06T01:24:26.726Z,54.92
2023-03-06T01:29:29.459Z,60.55
2023-03-06T01:34:32.138Z,64.63
2023-03-06T01:39:34.882Z,53.32
2023-03-06T01:44:37.696Z,55.20
2023-03-06T01:49:41.803Z,58.15
2023-03-06T01:54:50.187Z,63.97
2023-03-06T02:00:00.463Z,55.82
2023-03-06T02:05:05.579Z,59.45
2023-03-06T02:10:09.711Z,63.00
2023-03-06T02:15:14.491Z,54.76
2023-03-06T02:20:24.057Z,59.09
2023-03-06T02:25:26.863Z,63.97
2023-03-06T02:30:30.629Z,55.29
2023-03-06T02:35:36.412Z,56.33
2023-03-06T02:40:39.460Z,62.27
2023-03-06T02:45:48.762Z,57.25
2023-03-06T02:50:52.669Z,59.84
2023-03-06T02:55:55.362Z,63.41
2023-03-06T03:00:58.069Z,55.27
2023-03-06T03:06:01.422Z,58.11
2023-03-06T03:11:04.919Z,63.03
2023-03-06T03:16:11.210Z,65.50
2023-03-06T03:21:14.643Z,51.92
2023-03-06T03:26:20.781Z,55.38
2023-03-06T03:31:23.762Z,59.86
2023-03-06T03:36:27.916Z,62.01
2023-03-06T03:41:30.740Z,55.45
2023-03-06T03:46:33.826Z,60.10
2023-03-06T03:51:36.652Z,65.99
2023-03-06T03:56:41.891Z,59.90
2023-03-06T04:01:46.046Z,51.49
2023-03-06T04:06:48.927Z,59.38
2023-03-06T04:11:51.890Z,63.30
2023-03-06T04:16:55.021Z,55.71
2023-03-06T04:21:57.762Z,60.90
2023-03-06T04:27:00.455Z,63.10
2023-03-06T04:32:03.248Z,54.28
2023-03-06T04:37:06.040Z,61.24
2023-03-06T04:42:08.748Z,61.15
2023-03-06T04:47:12.403Z,57.32
2023-03-06T04:52:15.085Z,62.58
2023-03-06T04:57:17.860Z,58.64
2023-03-06T05:02:21.080Z,61.03
2023-03-06T05:07:24.049Z,63.43
2023-03-06T05:12:26.794Z,53.21
2023-03-06T05:17:29.733Z,57.56
2023-03-06T05:22:34.227Z,63.08
2023-03-06T05:27:37.784Z,56.48
2023-03-06T05:32:40.681Z,61.04
2023-03-06T05:37:43.433Z,60.36
2023-03-06T05:42:46.240Z,56.46
2023-03-06T05:47:48.962Z,61.96
2023-03-06T05:52:51.693Z,58.27
2023-03-06T05:57:54.448Z,59.77
2023-03-06T06:03:00.643Z,63.82
2023-03-06T06:08:03.387Z,57.27
2023-03-06T06:13:06.150Z,54.89
2023-03-06T06:18:08.916Z,62.89
2023-03-06T06:23:11.952Z,62.35
2023-03-06T06:28:14.648Z,52.71
2023-03-06T06:33:17.345Z,61.18
2023-03-06T06:38:21.274Z,60.64
2023-03-06T06:43:25.497Z,56.95
2023-03-06T06:48:28.254Z,62.08
2023-03-06T06:53:31.417Z,56.37
2023-03-06T06:58:34.298Z,59.85
2023-03-06T07:03:38.652Z,60.84
2023-03-06T07:08:41.414Z,58.03
2023-03-06T07:13:45.875Z,62.84
2023-03-06T07:18:51.425Z,57.47
2023-03-06T07:23:57.399Z,61.41
2023-03-06T07:29:09.184Z,60.10
2023-03-06T07:34:13.880Z,56.36
2023-03-06T07:39:17.113Z,61.84
2023-03-06T07:44:20.279Z,62.75
2023-03-06T07:49:23.469Z,52.23
2023-03-06T07:54:26.667Z,57.29
2023-03-06T07:59:41.584Z,61.29
2023-03-06T08:04:53.904Z,61.40
2023-03-06T08:10:10.662Z,54.66
2023-03-06T08:15:15.296Z,59.14
2023-03-06T08:20:18.771Z,61.41
2023-03-06T08:25:21.749Z,62.25
2023-03-06T08:30:24.759Z,54.41
2023-03-06T08:35:31.460Z,57.21
2023-03-06T08:40:35.582Z,59.69
2023-03-06T08:45:39.784Z,60.48
2023-03-06T08:50:46.028Z,61.03
2023-03-06T08:55:52.303Z,61.32
2023-03-06T09:01:05.235Z,61.37
2023-03-06T09:06:23.195Z,61.22
2023-03-06T09:11:26.723Z,60.14
2023-03-06T09:16:29.591Z,59.26
2023-03-06T09:21:34.964Z,58.64
2023-03-06T09:26:46.301Z,57.77
2023-03-06T09:31:49.513Z,56.81
2023-03-06T09:36:57.031Z,56.01
2023-03-06T09:42:07.482Z,55.25
2023-03-06T09:47:56.220Z,54.22
2023-03-06T09:53:48.936Z,51.99
2023-03-06T09:58:55.887Z,50.47
2023-03-06T10:04:13.763Z,50.45
2023-03-06T10:09:22.967Z,49.30
2023-03-06T10:14:48.809Z,48.48
2023-03-06T10:19:55.423Z,48.42
2023-03-06T10:25:28.222Z,48.24
2023-03-06T10:31:00.046Z,45.26
2023-03-06T10:36:05.744Z,45.38
2023-03-06T10:41:11.889Z,44.91
2023-03-06T10:46:28.727Z,44.45
2023-03-06T10:51:36.193Z,44.08
2023-03-06T10:56:42.160Z,43.43
2023-03-06T11:01:48.563Z,41.95
2023-03-06T11:07:26.094Z,39.52
2023-03-06T11:12:38.131Z,36.02
2023-03-06T11:18:16.261Z,34.41
2023-03-06T11:23:30.128Z,31.69
2023-03-06T11:28:43.035Z,31.31
2023-03-06T11:33:53.213Z,32.12
2023-03-06T11:39:03.340Z,31.56
2023-03-06T11:44:31.004Z,30.76
2023-03-06T11:49:41.533Z,31.04
2023-03-06T11:54:56.215Z,29.98
2023-03-06T12:00:17.882Z,29.16
2023-03-06T12:05:40.329Z,30.81
2023-03-06T12:10:54.288Z,30.34
2023-03-06T12:16:41.954Z,30.11
2023-03-06T12:22:06.281Z,29.34
2023-03-06T12:27:09.192Z,26.97
2023-03-06T12:32:45.114Z,27.53
2023-03-06T12:38:37.397Z,27.45
2023-03-06T12:44:01.544Z,27.49
2023-03-06T12:49:09.151Z,27.41
2023-03-06T12:54:14.656Z,28.31
2023-03-06T12:59:48.052Z,25.82
2023-03-06T13:05:14.156Z,25.41
2023-03-06T13:10:33.801Z,26.01
2023-03-06T13:15:41.398Z,26.49
2023-03-06T13:20:45.658Z,27.43
2023-03-06T13:25:50.956Z,27.88
2023-03-06T13:30:54.167Z,28.46
2023-03-06T13:36:00.627Z,28.79
2023-03-06T13:41:22.746Z,28.74
2023-03-06T13:46:35.581Z,29.19
2023-03-06T13:51:59.928Z,29.78
2023-03-06T13:57:41.529Z,29.76
2023-03-06T14:03:27.658Z,29.91
2023-03-06T14:08:32.629Z,30.67
2023-03-06T14:13:47.353Z,31.72
2023-03-06T14:18:53.454Z,32.43
2023-03-06T14:24:01.902Z,32.84
2023-03-06T14:29:24.231Z,33.25
2023-03-06T14:34:38.301Z,33.98
2023-03-06T14:39:44.148Z,34.55
2023-03-06T14:44:48.896Z,34.88
2023-03-06T14:50:21.786Z,35.26
2023-03-06T14:55:27.153Z,35.54
2023-03-06T15:00:37.758Z,35.74
2023-03-06T15:05:43.133Z,36.29
2023-03-06T15:11:04.236Z,36.61
2023-03-06T15:16:28.434Z,36.87
2023-03-06T15:21:38.015Z,37.11
2023-03-06T15:26:41.105Z,37.21
2023-03-06T15:31:45.937Z,37.54
2023-03-06T15:36:54.295Z,37.89
2023-03-06T15:42:09.724Z,38.18
2023-03-06T15:47:12.573Z,38.74
2023-03-06T15:52:15.372Z,39.19
2023-03-06T15:57:26.026Z,39.42
2023-03-06T16:02:28.840Z,40.07
2023-03-06T16:07:31.614Z,40.05
2023-03-06T16:12:34.406Z,40.18
2023-03-06T16:17:37.219Z,40.43
2023-03-06T16:22:39.884Z,40.43
2023-03-06T16:27:46.395Z,40.66
2023-03-06T16:32:50.082Z,40.89
2023-03-06T16:37:52.885Z,41.23
2023-03-06T16:42:56.458Z,42.72
2023-03-06T16:48:00.363Z,44.33
2023-03-06T16:53:05.349Z,46.45
2023-03-06T16:58:08.785Z,46.95
2023-03-06T17:03:11.606Z,47.68
2023-03-06T17:08:14.344Z,50.11
2023-03-06T17:13:18.522Z,50.72
2023-03-06T17:18:21.313Z,51.50
2023-03-06T17:23:27.698Z,51.32
2023-03-06T17:28:30.985Z,51.73
2023-03-06T17:33:33.700Z,52.51
2023-03-06T17:38:36.553Z,52.46
2023-03-06T17:43:40.868Z,52.54
2023-03-06T17:48:44.913Z,52.89
2023-03-06T17:53:48.012Z,52.50
2023-03-06T17:58:50.733Z,52.81
2023-03-06T18:03:53.489Z,52.90
2023-03-06T18:08:56.429Z,52.80
2023-03-06T18:13:59.597Z,53.90
2023-03-06T18:19:02.615Z,53.96
2023-03-06T18:24:05.782Z,54.15
2023-03-06T18:29:08.719Z,54.29
2023-03-06T18:34:14.263Z,54.59
2023-03-06T18:39:17.247Z,55.14
2023-03-06T18:44:20.450Z,56.65
2023-03-06T18:49:23.322Z,56.64
2023-03-06T18:54:29.180Z,56.21
2023-03-06T18:59:32.153Z,56.69
2023-03-06T19:04:36.373Z,56.58
2023-03-06T19:09:40.844Z,56.89
2023-03-06T19:14:44.561Z,57.31
2023-03-06T19:19:49.693Z,57.09
2023-03-06T19:24:53.451Z,57.27
2023-03-06T19:29:56.779Z,57.73
2023-03-06T19:34:59.707Z,57.44
2023-03-06T19:40:03.758Z,57.19
2023-03-06T19:45:07.375Z,57.46
2023-03-06T19:50:12.456Z,57.59
2023-03-06T19:55:15.290Z,57.48
2023-03-06T20:00:18.934Z,57.88
2023-03-06T20:05:22.084Z,57.90
2023-03-06T20:10:24.907Z,58.01
2023-03-06T20:15:28.989Z,57.88
2023-03-06T20:20:32.423Z,58.24
2023-03-06T20:25:36.881Z,58.22
2023-03-06T20:30:39.659Z,58.75
2023-03-06T20:35:42.939Z,59.22
2023-03-06T20:40:45.851Z,59.34
2023-03-06T20:45:59.203Z,59.23
2023-03-06T20:51:14.680Z,59.04
2023-03-06T20:56:20.609Z,59.11
2023-03-06T21:01:27.476Z,59.32
2023-03-06T21:06:33.230Z,59.98
2023-03-06T21:11:35.996Z,59.75
2023-03-06T21:16:38.961Z,60.52
2023-03-06T21:21:44.102Z,60.45
2023-03-06T21:26:47.167Z,60.03
2023-03-06T21:31:50.159Z,60.60
2023-03-06T21:36:53.255Z,60.83
2023-03-06T21:41:55.998Z,71.24
2023-03-06T21:46:58.713Z,72.03
2023-03-06T21:52:01.493Z,63.62
2023-03-06T21:57:04.372Z,48.85
2023-03-06T22:02:11.072Z,48.06
2023-03-06T22:07:13.825Z,51.39
2023-03-06T22:12:16.685Z,53.16
2023-03-06T22:17:21.201Z,54.25
2023-03-06T22:22:25.438Z,55.24
2023-03-06T22:27:29.646Z,55.96
2023-03-06T22:32:33.353Z,57.67
2023-03-06T22:37:36.258Z,60.08
2023-03-06T22:42:38.950Z,69.46
2023-03-06T22:47:41.691Z,71.31
2023-03-06T22:52:45.054Z,60.37
2023-03-06T22:57:47.932Z,47.76
2023-03-06T23:02:51.511Z,49.88
2023-03-06T23:07:54.225Z,51.28
2023-03-06T23:12:57.025Z,53.72
2023-03-06T23:17:59.732Z,55.17
2023-03-06T23:23:02.656Z,57.13
2023-03-06T23:28:05.419Z,59.54
2023-03-06T23:33:09.208Z,60.26
2023-03-06T23:38:13.084Z,70.71
2023-03-06T23:43:15.824Z,70.89
2023-03-06T23:48:18.540Z,58.45
2023-03-06T23:53:21.973Z,47.35
2023-03-06T23:58:24.709Z,49.82
